createdAt,value
2022-08-08T00:02:30.283Z,96132.47
2022-08-08T00:07:58.179Z,96138.78
2022-08-08T00:14:17.225Z,96139.13
2022-08-08T00:18:57.640Z,96131.47
2022-08-08T00:24:04.582Z,96137.00
2022-08-08T00:29:46.931Z,96141.63
2022-08-08T00:35:10.340Z,96128.63
2022-08-08T00:41:09.730Z,96124.22
2022-08-08T00:46:32.150Z,96120.78
2022-08-08T00:52:20.141Z,96121.63
2022-08-08T00:57:36.267Z,96125.41
2022-08-08T01:04:02.569Z,96116.63
2022-08-08T01:08:57.519Z,96106.72
2022-08-08T01:14:53.480Z,96108.69
2022-08-08T01:20:21.769Z,96100.00
2022-08-08T01:26:02.272Z,96102.25
2022-08-08T01:32:17.327Z,96100.53
2022-08-08T01:37:56.901Z,96103.28
2022-08-08T01:43:34.651Z,96099.25
2022-08-08T01:49:37.865Z,96113.91
2022-08-08T01:56:27.161Z,96112.31
2022-08-08T02:01:17.336Z,96116.00
2022-08-08T02:12:33.169Z,96118.03
2022-08-08T02:18:19.307Z,96116.16
2022-08-08T02:23:35.177Z,96120.31
2022-08-08T02:29:18.976Z,96126.69
2022-08-08T02:35:08.856Z,96124.94
2022-08-08T02:46:26.768Z,96128.75
2022-08-08T02:51:59.715Z,96117.94
2022-08-08T02:57:23.891Z,96108.63
2022-08-08T03:03:07.950Z,96110.66
2022-08-08T03:08:51.696Z,96115.13
2022-08-08T03:16:01.029Z,96110.13
2022-08-08T03:20:00.187Z,96115.81
2022-08-08T03:25:17.797Z,96109.66
2022-08-08T03:30:44.327Z,96115.81
2022-08-08T03:36:19.488Z,96116.16
2022-08-08T03:42:26.181Z,96122.16
2022-08-08T03:47:19.823Z,96126.97
2022-08-08T03:52:26.940Z,96127.47
2022-08-08T03:58:29.910Z,96133.97
2022-08-08T04:03:03.445Z,96137.63
2022-08-08T04:08:08.055Z,96141.97
2022-08-08T04:13:29.145Z,96141.66
2022-08-08T04:18:51.888Z,96148.00
2022-08-08T04:24:28.194Z,96151.13
2022-08-08T04:29:55.418Z,96143.31
2022-08-08T04:35:05.007Z,96151.16
2022-08-08T04:40:13.058Z,96150.50
2022-08-08T04:45:22.510Z,96153.34
2022-08-08T04:50:34.221Z,96156.00
2022-08-08T04:55:55.308Z,96163.28
2022-08-08T05:01:06.024Z,96175.13
2022-08-08T05:06:30.468Z,96178.66
2022-08-08T05:11:39.115Z,96174.63
2022-08-08T05:16:51.310Z,96175.78
2022-08-08T05:22:00.637Z,96186.13
2022-08-08T05:27:08.235Z,96182.94
2022-08-08T05:32:33.074Z,96193.44
2022-08-08T05:37:53.385Z,96188.63
2022-08-08T05:43:38.379Z,96190.88
2022-08-08T05:48:36.298Z,96187.72
2022-08-08T05:54:25.954Z,96191.25
2022-08-08T05:59:59.552Z,96194.81
2022-08-08T06:04:54.834Z,96199.31
2022-08-08T06:10:03.272Z,96191.28
2022-08-08T06:15:16.049Z,96195.88
2022-08-08T06:20:21.008Z,96209.19
2022-08-08T06:26:35.992Z,96201.09
2022-08-08T06:30:51.930Z,96202.47
2022-08-08T06:36:15.501Z,96206.78
2022-08-08T06:41:46.472Z,96211.06
2022-08-08T06:46:55.029Z,96210.31
2022-08-08T06:52:01.550Z,96217.47
2022-08-08T06:57:05.968Z,96215.91
2022-08-08T07:02:28.744Z,96222.75
2022-08-08T07:07:43.682Z,96211.81
2022-08-08T07:13:01.111Z,96214.34
2022-08-08T07:18:36.516Z,96217.63
2022-08-08T07:24:01.388Z,96227.44
2022-08-08T07:29:20.483Z,96216.41
2022-08-08T07:34:48.340Z,96214.88
2022-08-08T07:40:05.391Z,96213.47
2022-08-08T07:45:34.349Z,96215.16
2022-08-08T07:50:40.061Z,96215.97
2022-08-08T07:56:03.530Z,96223.16
2022-08-08T08:01:10.211Z,96229.75
2022-08-08T08:06:18.850Z,96230.59
2022-08-08T08:11:38.427Z,96235.72
2022-08-08T08:16:56.991Z,96237.28
2022-08-08T08:22:31.474Z,96238.34
2022-08-08T08:27:39.229Z,96234.38
2022-08-08T08:32:51.925Z,96238.06
2022-08-08T08:38:17.487Z,96239.31
2022-08-08T08:43:31.830Z,96236.16
2022-08-08T08:48:53.791Z,96236.06
2022-08-08T08:54:00.919Z,96243.59
2022-08-08T08:59:58.902Z,96237.50
2022-08-08T09:05:06.270Z,96241.78
2022-08-08T09:10:17.254Z,96243.41
2022-08-08T09:15:42.402Z,96240.69
2022-08-08T09:22:00.536Z,96235.56
2022-08-08T09:26:39.499Z,96239.38
2022-08-08T09:31:56.550Z,96241.34
2022-08-08T09:37:57.865Z,96236.59
2022-08-08T09:43:24.126Z,96239.88
2022-08-08T09:48:43.086Z,96236.66
2022-08-08T09:54:08.479Z,96243.78
2022-08-08T10:04:52.554Z,96245.91
2022-08-08T10:10:00.759Z,96235.00
2022-08-08T10:15:17.899Z,96238.66
2022-08-08T10:20:25.975Z,96242.91
2022-08-08T10:26:03.868Z,96233.66
2022-08-08T10:31:13.489Z,96230.19
2022-08-08T10:36:20.619Z,96239.34
2022-08-08T10:41:59.008Z,96228.59
2022-08-08T10:47:20.975Z,96230.81
2022-08-08T10:52:36.161Z,96221.97
2022-08-08T10:58:01.631Z,96220.31
2022-08-08T11:03:52.884Z,96229.44
2022-08-08T11:09:20.188Z,96223.72
2022-08-08T11:14:26.365Z,96220.03
2022-08-08T11:19:31.795Z,96220.56
2022-08-08T11:24:59.982Z,96211.78
2022-08-08T11:30:24.868Z,96211.56
2022-08-08T11:35:48.130Z,96215.97
2022-08-08T11:41:11.051Z,96222.31
2022-08-08T11:46:18.417Z,96215.81
2022-08-08T11:51:29.525Z,96201.09
2022-08-08T11:57:34.988Z,96208.50
2022-08-08T12:02:56.278Z,96199.22
2022-08-08T12:08:04.381Z,96201.56
2022-08-08T12:13:10.229Z,96178.03
2022-08-08T12:18:24.587Z,96183.06
2022-08-08T12:23:40.307Z,96186.78
2022-08-08T12:29:40.640Z,96186.72
2022-08-08T12:35:13.274Z,96173.13
2022-08-08T12:40:54.836Z,96168.44
2022-08-08T12:46:25.177Z,96169.13
2022-08-08T12:51:50.100Z,96179.41
2022-08-08T12:57:12.098Z,96177.91
2022-08-08T13:02:35.806Z,96181.09
2022-08-08T13:08:03.517Z,96181.31
2022-08-08T13:13:34.791Z,96178.84
2022-08-08T13:18:55.775Z,96178.25
2022-08-08T13:24:06.816Z,96176.28
2022-08-08T13:29:11.689Z,96171.59
2022-08-08T13:34:33.184Z,96160.22
2022-08-08T13:39:37.076Z,96162.13
2022-08-08T13:44:41.076Z,96162.66
2022-08-08T13:50:36.532Z,96169.25
2022-08-08T13:55:36.430Z,96164.16
2022-08-08T14:01:15.761Z,96165.94
2022-08-08T14:06:20.512Z,96166.00
2022-08-08T14:11:54.347Z,96159.31
2022-08-08T14:17:22.429Z,96166.06
2022-08-08T14:22:42.087Z,96160.16
2022-08-08T14:28:10.205Z,96157.38
2022-08-08T14:33:36.283Z,96159.84
2022-08-08T14:38:52.545Z,96162.56
2022-08-08T14:44:11.690Z,96159.59
2022-08-08T14:49:20.621Z,96162.34
2022-08-08T14:54:52.368Z,96145.63
2022-08-08T14:59:56.216Z,96150.66
2022-08-08T15:05:08.354Z,96144.88
2022-08-08T15:10:15.243Z,96148.59
2022-08-08T15:16:01.296Z,96140.25
2022-08-08T15:20:58.950Z,96145.69
2022-08-08T15:26:01.129Z,96148.03
2022-08-08T15:31:04.169Z,96146.38
2022-08-08T15:36:28.588Z,96145.97
2022-08-08T15:41:43.808Z,96147.69
2022-08-08T15:47:06.768Z,96139.78
2022-08-08T15:52:36.469Z,96144.81
2022-08-08T15:57:41.569Z,96142.69
2022-08-08T16:02:50.831Z,96131.44
2022-08-08T16:07:54.796Z,96138.88
2022-08-08T16:13:34.048Z,96143.34
2022-08-08T16:18:58.207Z,96134.75
2022-08-08T16:24:15.378Z,96144.06
2022-08-08T16:30:12.963Z,96144.28
2022-08-08T16:35:40.549Z,96138.69
2022-08-08T16:40:50.046Z,96142.34
2022-08-08T16:46:43.735Z,96151.63
2022-08-08T16:55:03.023Z,96148.38
2022-08-08T16:58:14.874Z,96138.41
2022-08-08T17:03:05.687Z,96142.06
2022-08-08T17:08:07.897Z,96141.91
2022-08-08T17:13:11.768Z,96138.28
2022-08-08T17:18:15.824Z,96147.59
2022-08-08T17:23:58.078Z,96143.34
2022-08-08T17:28:41.062Z,96145.88
2022-08-08T17:34:53.906Z,96155.72
2022-08-08T17:39:45.782Z,96164.88
2022-08-08T17:50:01.233Z,96179.81
2022-08-08T17:56:08.015Z,96184.63
2022-08-08T18:00:54.488Z,96187.13
2022-08-08T18:06:30.726Z,96185.22
2022-08-08T18:11:36.443Z,96181.56
2022-08-08T18:16:57.397Z,96188.25
2022-08-08T18:22:06.049Z,96189.59
2022-08-08T18:27:29.032Z,96197.47
2022-08-08T18:32:52.398Z,96198.06
2022-08-08T18:37:56.845Z,96193.94
2022-08-08T18:43:01.370Z,96197.75
2022-08-08T18:48:37.542Z,96200.28
2022-08-08T18:54:03.376Z,96209.78
2022-08-08T18:59:02.553Z,96216.50
2022-08-08T19:04:10.812Z,96213.94
2022-08-08T19:09:14.985Z,96215.50
2022-08-08T19:14:20.372Z,96223.16
2022-08-08T19:19:26.151Z,96233.25
2022-08-08T19:25:20.377Z,96229.59
2022-08-08T19:30:18.140Z,96237.59
2022-08-08T19:36:08.711Z,96243.44
2022-08-08T19:41:09.965Z,96240.66
2022-08-08T19:46:23.403Z,96250.44
2022-08-08T19:51:46.712Z,96249.56
2022-08-08T19:56:51.863Z,96253.72
2022-08-08T20:02:02.762Z,96259.72
2022-08-08T20:08:28.246Z,96258.63
2022-08-08T20:12:32.893Z,96255.53
2022-08-08T20:17:39.675Z,96254.81
2022-08-08T20:23:04.321Z,96262.72
2022-08-08T20:28:33.369Z,96256.50
2022-08-08T20:34:02.019Z,96258.16
2022-08-08T20:38:58.048Z,96261.06
2022-08-08T20:44:18.689Z,96260.69
2022-08-08T20:49:21.881Z,96268.56
2022-08-08T20:54:44.278Z,96255.50
2022-08-08T21:00:06.319Z,96260.69
2022-08-08T21:05:12.389Z,96260.69
2022-08-08T21:10:16.693Z,96264.00
2022-08-08T21:16:06.029Z,96266.50
2022-08-08T21:20:59.888Z,96264.41
2022-08-08T21:31:24.152Z,96266.94
2022-08-08T21:36:53.948Z,96266.31
2022-08-08T21:41:59.299Z,96264.19
2022-08-08T21:48:06.923Z,96263.03
2022-08-08T21:54:36.813Z,96269.28
2022-08-08T21:58:04.130Z,96269.88
2022-08-08T22:03:27.257Z,96269.41
2022-08-08T22:08:50.345Z,96262.69
2022-08-08T22:14:11.252Z,96265.50
2022-08-08T22:19:15.437Z,96259.19
2022-08-08T22:24:37.288Z,96264.38
2022-08-08T22:29:59.192Z,96265.47
2022-08-08T22:35:03.635Z,96259.53
2022-08-08T22:40:24.546Z,96260.00
2022-08-08T22:45:53.245Z,96264.34
2022-08-08T22:50:55.439Z,96256.97
2022-08-08T22:56:01.571Z,96259.66
2022-08-08T23:01:26.539Z,96257.91
2022-08-08T23:06:29.069Z,96260.22
2022-08-08T23:12:18.039Z,96255.78
2022-08-08T23:17:12.429Z,96245.81
2022-08-08T23:22:37.439Z,96254.00
2022-08-08T23:27:46.271Z,96250.06
2022-08-08T23:32:49.636Z,96250.03
2022-08-08T23:38:03.039Z,96239.28
2022-08-08T23:43:06.041Z,96246.13
2022-08-08T23:49:00.922Z,96240.19
2022-08-08T23:54:06.192Z,96253.13
2022-08-08T23:59:16.823Z,96249.19
